createdAt,value
2019-04-05T00:00:09.316Z,11.87
2019-04-05T00:01:15.532Z,11.85
2019-04-05T00:02:20.344Z,11.94
2019-04-05T00:03:24.805Z,11.91
2019-04-05T00:04:30.341Z,11.84
2019-04-05T00:05:34.872Z,11.85
2019-04-05T00:06:39.336Z,11.90
2019-04-05T00:07:43.843Z,11.92
2019-04-05T00:08:48.306Z,11.84
2019-04-05T00:09:52.788Z,11.77
2019-04-05T00:10:57.620Z,11.78
2019-04-05T00:12:02.095Z,11.72
2019-04-05T00:13:06.649Z,11.70
2019-04-05T00:14:11.720Z,11.76
2019-04-05T00:15:16.330Z,11.75
2019-04-05T00:16:21.257Z,11.66
2019-04-05T00:17:26.038Z,11.65
2019-04-05T00:18:30.508Z,11.52
2019-04-05T00:19:34.968Z,11.45
2019-04-05T00:20:39.483Z,11.41
2019-04-05T00:21:43.921Z,11.25
2019-04-05T00:22:48.702Z,11.12
2019-04-05T00:23:53.561Z,11.08
2019-04-05T00:24:58.028Z,11.00
2019-04-05T00:26:02.891Z,11.03
2019-04-05T00:27:07.376Z,10.93
2019-04-05T00:28:11.856Z,10.91
2019-04-05T00:29:16.326Z,10.89
2019-04-05T00:30:21.028Z,10.86
2019-04-05T00:31:25.669Z,10.89
2019-04-05T00:32:30.149Z,10.95
2019-04-05T00:33:34.616Z,10.90
2019-04-05T00:34:39.085Z,10.93
2019-04-05T00:35:43.628Z,10.80
2019-04-05T00:36:48.098Z,10.81
2019-04-05T00:37:52.583Z,10.86
2019-04-05T00:38:57.049Z,10.84
2019-04-05T00:40:01.799Z,10.82
2019-04-05T00:41:06.265Z,10.80
2019-04-05T00:42:10.736Z,10.80
2019-04-05T00:43:15.605Z,10.81
2019-04-05T00:44:20.075Z,10.86
2019-04-05T00:45:28.530Z,10.84
2019-04-05T00:46:30.713Z,10.77
2019-04-05T00:47:35.247Z,10.80
2019-04-05T00:48:41.036Z,10.77
2019-04-05T00:49:45.789Z,10.74
2019-04-05T00:50:50.252Z,10.68
2019-04-05T00:51:55.183Z,10.66
2019-04-05T00:53:00.011Z,10.68
2019-04-05T00:54:04.616Z,10.66
2019-04-05T00:55:10.459Z,10.62
2019-04-05T00:56:14.924Z,10.60
2019-04-05T00:57:19.391Z,10.56
2019-04-05T00:58:23.887Z,10.49
2019-04-05T00:59:28.732Z,10.48
2019-04-05T01:00:33.195Z,10.46
2019-04-05T01:01:37.727Z,10.44
2019-04-05T01:02:42.189Z,10.52
2019-04-05T01:03:46.976Z,10.48
2019-04-05T01:04:51.447Z,10.53
2019-04-05T01:05:55.984Z,10.51
2019-04-05T01:07:00.454Z,10.46
2019-04-05T01:08:05.336Z,10.47
2019-04-05T01:09:09.865Z,10.53
2019-04-05T01:10:14.472Z,10.51
2019-04-05T01:11:19.376Z,10.47
2019-04-05T01:12:25.496Z,10.56
2019-04-05T01:13:31.778Z,10.51
2019-04-05T01:14:37.181Z,10.49
2019-04-05T01:15:41.647Z,10.43
2019-04-05T01:16:46.548Z,10.39
2019-04-05T01:17:51.090Z,10.35
2019-04-05T01:18:55.908Z,10.30
2019-04-05T01:20:03.189Z,10.29
2019-04-05T01:21:10.701Z,10.27
2019-04-05T01:22:16.705Z,10.28
2019-04-05T01:23:22.151Z,10.20
2019-04-05T01:24:27.147Z,10.16
2019-04-05T01:25:31.774Z,10.18
2019-04-05T01:26:37.509Z,10.11
2019-04-05T01:27:43.151Z,10.11
2019-04-05T01:28:47.695Z,10.12
2019-04-05T01:29:52.164Z,10.06
2019-04-05T01:30:56.924Z,10.00
2019-04-05T01:32:01.709Z,10.02
2019-04-05T01:33:06.633Z,9.90
2019-04-05T01:34:11.166Z,9.89
2019-04-05T01:35:16.017Z,9.90
2019-04-05T01:36:20.460Z,9.89
2019-04-05T01:37:25.749Z,9.87
2019-04-05T01:38:30.303Z,9.90
2019-04-05T01:39:35.054Z,9.82
2019-04-05T01:40:41.426Z,9.80
2019-04-05T01:41:46.226Z,9.72
2019-04-05T01:42:51.136Z,9.56
2019-04-05T01:43:55.628Z,9.60
2019-04-05T01:45:00.786Z,9.60
2019-04-05T01:46:05.696Z,9.59
2019-04-05T01:47:10.156Z,9.56
2019-04-05T01:48:14.615Z,9.53
2019-04-05T01:49:19.111Z,9.53
2019-04-05T01:50:23.971Z,9.47
2019-04-05T01:51:28.433Z,9.43
2019-04-05T01:52:33.095Z,9.38
2019-04-05T01:53:38.005Z,9.38
2019-04-05T01:54:42.534Z,9.36
2019-04-05T01:55:47.000Z,9.38
2019-04-05T01:56:51.467Z,9.32
2019-04-05T01:57:55.922Z,9.34
2019-04-05T01:59:00.408Z,9.37
2019-04-05T02:00:08.224Z,9.30
2019-04-05T02:01:13.169Z,9.21
2019-04-05T02:02:17.706Z,9.21
2019-04-05T02:03:22.177Z,9.35
2019-04-05T02:04:26.673Z,9.35
2019-04-05T02:05:31.206Z,9.28
2019-04-05T02:06:36.356Z,9.37
2019-04-05T02:07:41.256Z,9.40
2019-04-05T02:08:45.872Z,9.40
2019-04-05T02:09:50.470Z,9.38
2019-04-05T02:10:55.500Z,9.39
2019-04-05T02:12:00.039Z,9.39
2019-04-05T02:13:04.959Z,9.34
2019-04-05T02:14:09.631Z,9.33
2019-04-05T02:15:22.825Z,9.32
2019-04-05T02:16:27.614Z,9.31
2019-04-05T02:17:32.530Z,9.17
2019-04-05T02:18:38.037Z,9.17
2019-04-05T02:19:42.520Z,9.26
2019-04-05T02:20:47.046Z,9.23
2019-04-05T02:21:51.576Z,9.21
2019-04-05T02:22:57.079Z,9.22
2019-04-05T02:24:01.626Z,9.24
2019-04-05T02:25:07.323Z,9.15
2019-04-05T02:26:11.786Z,9.23
2019-04-05T02:27:16.613Z,9.21
2019-04-05T02:28:21.153Z,9.21
2019-04-05T02:29:25.641Z,9.23
2019-04-05T02:30:30.169Z,9.22
2019-04-05T02:31:34.630Z,9.18
2019-04-05T02:32:39.084Z,9.18
2019-04-05T02:33:44.006Z,9.07
2019-04-05T02:34:48.566Z,9.07
2019-04-05T02:35:53.015Z,9.15
2019-04-05T02:36:57.484Z,9.16
2019-04-05T02:38:01.942Z,9.16
2019-04-05T02:39:07.976Z,9.16
2019-04-05T02:40:15.406Z,9.06
2019-04-05T02:41:22.227Z,9.11
2019-04-05T02:42:27.125Z,9.11
2019-04-05T02:43:33.827Z,9.08
2019-04-05T02:44:39.539Z,9.10
2019-04-05T02:45:45.709Z,9.21
2019-04-05T02:46:51.938Z,9.18
2019-04-05T02:47:59.779Z,9.12
2019-04-05T02:49:05.778Z,9.09
2019-04-05T02:50:11.264Z,8.98
2019-04-05T02:51:19.744Z,8.98
2019-04-05T02:52:25.067Z,9.08
2019-04-05T02:53:31.472Z,9.08
2019-04-05T02:54:36.804Z,9.00
2019-04-05T02:55:43.146Z,9.00
2019-04-05T02:56:48.434Z,8.95
2019-04-05T02:57:55.303Z,8.92
2019-04-05T02:59:01.614Z,8.92
2019-04-05T03:00:06.236Z,8.91
2019-04-05T03:01:11.165Z,8.91
2019-04-05T03:02:16.568Z,8.86
2019-04-05T03:03:21.688Z,8.72
2019-04-05T03:04:26.579Z,8.81
2019-04-05T03:05:31.998Z,8.82
2019-04-05T03:06:37.073Z,8.89
2019-04-05T03:07:41.599Z,8.89
2019-04-05T03:08:46.853Z,8.86
2019-04-05T03:09:51.870Z,8.91
2019-04-05T03:11:02.137Z,8.93
2019-04-05T03:12:07.153Z,8.96
2019-04-05T03:13:11.605Z,8.93
2019-04-05T03:14:16.965Z,8.85
2019-04-05T03:15:21.453Z,8.85
2019-04-05T03:16:40.361Z,8.86
2019-04-05T03:17:37.834Z,8.83
2019-04-05T03:18:45.355Z,8.85
2019-04-05T03:19:52.668Z,8.86
2019-04-05T03:21:00.191Z,8.83
2019-04-05T03:22:07.130Z,8.89
2019-04-05T03:23:12.015Z,8.93
2019-04-05T03:24:19.524Z,8.90
2019-04-05T03:25:25.041Z,8.87
2019-04-05T03:26:32.854Z,8.87
2019-04-05T03:27:39.688Z,8.85
2019-04-05T03:28:47.189Z,8.86
2019-04-05T03:29:52.401Z,8.81
2019-04-05T03:30:57.465Z,8.69
2019-04-05T03:32:02.127Z,8.69
2019-04-05T03:33:07.211Z,8.79
2019-04-05T03:34:12.972Z,8.77
2019-04-05T03:35:18.560Z,8.74
2019-04-05T03:36:23.785Z,8.73
2019-04-05T03:37:29.193Z,8.70
2019-04-05T03:38:33.975Z,8.68
2019-04-05T03:39:39.024Z,8.67
2019-04-05T03:40:44.283Z,8.66
2019-04-05T03:41:49.455Z,8.66
2019-04-05T03:42:54.201Z,8.65
2019-04-05T03:43:58.929Z,8.64
2019-04-05T03:45:03.781Z,8.59
2019-04-05T03:46:09.074Z,8.50
2019-04-05T03:47:13.541Z,8.44
2019-04-05T03:48:18.259Z,8.39
2019-04-05T03:49:23.427Z,8.34
2019-04-05T03:50:27.990Z,8.29
2019-04-05T03:51:34.093Z,8.34
2019-04-05T03:52:39.493Z,8.25
2019-04-05T03:53:44.059Z,8.25
2019-04-05T03:54:49.256Z,8.24
2019-04-05T03:55:55.331Z,8.15
2019-04-05T03:57:00.399Z,8.15
2019-04-05T03:58:05.780Z,8.10
2019-04-05T03:59:10.447Z,8.06
2019-04-05T04:00:15.421Z,8.01
2019-04-05T04:01:20.107Z,8.03
2019-04-05T04:02:25.964Z,7.99
2019-04-05T04:03:31.416Z,8.01
2019-04-05T04:04:36.109Z,7.93
2019-04-05T04:05:40.804Z,7.93
2019-04-05T04:06:45.893Z,7.91
2019-04-05T04:07:50.359Z,7.82
2019-04-05T04:08:55.001Z,7.82
2019-04-05T04:09:59.557Z,7.80
2019-04-05T04:11:04.995Z,7.81
2019-04-05T04:12:09.714Z,7.71
2019-04-05T04:13:14.461Z,7.71
2019-04-05T04:14:20.804Z,7.72
2019-04-05T04:15:26.209Z,7.75
2019-04-05T04:16:31.064Z,7.72
2019-04-05T04:17:35.664Z,7.75
2019-04-05T04:18:41.058Z,7.72
2019-04-05T04:19:45.844Z,7.68
2019-04-05T04:20:53.521Z,7.61
2019-04-05T04:22:16.071Z,7.62
2019-04-05T04:23:23.130Z,7.57
2019-04-05T04:24:27.753Z,7.51
2019-04-05T04:25:32.977Z,7.43
2019-04-05T04:26:37.896Z,7.45
2019-04-05T04:27:42.351Z,7.47
2019-04-05T04:28:46.880Z,7.53
2019-04-05T04:29:52.207Z,7.53
2019-04-05T04:30:56.836Z,7.51
2019-04-05T04:32:01.492Z,7.51
2019-04-05T04:33:07.667Z,7.49
2019-04-05T04:34:12.789Z,7.48
2019-04-05T04:35:17.413Z,7.46
2019-04-05T04:36:22.419Z,7.44
2019-04-05T04:37:26.878Z,7.43
2019-04-05T04:38:32.487Z,7.42
2019-04-05T04:39:37.706Z,7.41
2019-04-05T04:40:42.635Z,7.44
2019-04-05T04:41:47.179Z,7.44
2019-04-05T04:42:52.011Z,7.41
2019-04-05T04:43:56.609Z,7.41
2019-04-05T04:45:11.806Z,7.25
2019-04-05T04:46:08.369Z,7.23
2019-04-05T04:47:25.400Z,7.12
2019-04-05T04:48:19.441Z,7.12
2019-04-05T04:49:24.371Z,7.04
2019-04-05T04:50:29.536Z,7.15
2019-04-05T04:51:35.062Z,7.15
2019-04-05T04:52:39.957Z,7.11
2019-04-05T04:53:44.947Z,7.15
2019-04-05T04:54:49.751Z,7.17
2019-04-05T04:55:54.207Z,7.17
2019-04-05T04:57:00.238Z,7.15
2019-04-05T04:58:04.956Z,7.14
2019-04-05T04:59:09.480Z,7.19
2019-04-05T05:00:14.609Z,7.21
2019-04-05T05:01:19.567Z,7.24
2019-04-05T05:02:24.130Z,7.33
2019-04-05T05:03:29.069Z,7.35
2019-04-05T05:04:33.751Z,7.41
2019-04-05T05:05:38.546Z,7.41
2019-04-05T05:06:43.485Z,7.42
2019-04-05T05:07:48.410Z,7.42
2019-04-05T05:08:52.939Z,7.41
2019-04-05T05:09:57.939Z,7.43
2019-04-05T05:11:13.939Z,7.46
2019-04-05T05:12:09.175Z,7.46
2019-04-05T05:13:13.703Z,7.47
2019-04-05T05:14:18.330Z,7.49
2019-04-05T05:15:23.127Z,7.48
2019-04-05T05:16:27.889Z,7.51
2019-04-05T05:17:38.323Z,7.56
2019-04-05T05:18:39.507Z,7.58
2019-04-05T05:19:44.201Z,7.66
2019-04-05T05:20:49.047Z,7.72
2019-04-05T05:21:53.638Z,7.74
2019-04-05T05:22:58.395Z,7.77
2019-04-05T05:24:03.029Z,7.78
2019-04-05T05:25:08.019Z,7.88
2019-04-05T05:26:12.885Z,7.94
2019-04-05T05:27:17.429Z,7.97
2019-04-05T05:28:22.123Z,8.01
2019-04-05T05:29:26.720Z,8.11
2019-04-05T05:30:31.442Z,8.14
2019-04-05T05:31:35.900Z,8.19
2019-04-05T05:32:40.670Z,8.25
2019-04-05T05:33:45.288Z,8.30
2019-04-05T05:35:01.317Z,8.38
2019-04-05T05:35:57.041Z,8.42
2019-04-05T05:37:01.880Z,8.53
2019-04-05T05:38:07.504Z,8.62
2019-04-05T05:39:12.097Z,8.77
2019-04-05T05:40:17.099Z,8.87
2019-04-05T05:41:21.589Z,8.96
2019-04-05T05:42:26.444Z,9.06
2019-04-05T05:43:31.187Z,9.22
2019-04-05T05:44:36.207Z,9.24
2019-04-05T05:45:40.751Z,9.28
2019-04-05T05:46:45.548Z,9.28
2019-04-05T05:47:52.087Z,9.51
2019-04-05T05:48:56.320Z,9.70
2019-04-05T05:50:00.943Z,9.70
2019-04-05T05:51:05.391Z,9.69
2019-04-05T05:52:10.464Z,9.69
2019-04-05T05:53:15.314Z,9.97
2019-04-05T05:54:19.761Z,10.20
2019-04-05T05:55:24.229Z,10.33
2019-04-05T05:56:28.985Z,10.44
2019-04-05T05:57:33.937Z,10.51
2019-04-05T05:58:39.651Z,10.51
2019-04-05T05:59:44.412Z,10.43
2019-04-05T06:00:48.877Z,10.37
2019-04-05T06:01:53.612Z,10.42
2019-04-05T06:02:58.384Z,10.46
2019-04-05T06:04:02.843Z,10.38
2019-04-05T06:05:07.449Z,10.46
2019-04-05T06:06:11.913Z,10.39
2019-04-05T06:07:16.451Z,10.46
2019-04-05T06:08:20.937Z,10.48
2019-04-05T06:09:25.681Z,10.53
2019-04-05T06:10:30.146Z,10.62
2019-04-05T06:11:34.601Z,10.69
2019-04-05T06:12:40.397Z,10.63
2019-04-05T06:13:45.216Z,10.67
2019-04-05T06:14:49.976Z,10.76
2019-04-05T06:15:54.445Z,10.73
2019-04-05T06:16:58.906Z,10.84
2019-04-05T06:18:04.801Z,10.87
2019-04-05T06:19:09.638Z,10.90
2019-04-05T06:20:17.308Z,10.89
2019-04-05T06:21:21.764Z,10.82
2019-04-05T06:22:26.235Z,10.82
2019-04-05T06:23:34.081Z,10.81
2019-04-05T06:24:37.202Z,10.90
2019-04-05T06:25:41.663Z,10.99
2019-04-05T06:26:46.133Z,11.01
2019-04-05T06:27:50.618Z,11.07
2019-04-05T06:28:55.214Z,11.09
2019-04-05T06:30:00.072Z,11.16
2019-04-05T06:31:04.893Z,11.34
2019-04-05T06:32:09.716Z,11.34
2019-04-05T06:33:14.196Z,11.45
2019-04-05T06:34:18.658Z,11.57
2019-04-05T06:35:23.454Z,11.60
2019-04-05T06:36:27.914Z,11.70
2019-04-05T06:37:32.379Z,11.74
2019-04-05T06:38:36.868Z,11.91
2019-04-05T06:39:41.330Z,11.87
2019-04-05T06:40:45.799Z,11.92
2019-04-05T06:41:50.264Z,11.96
2019-04-05T06:42:54.751Z,12.20
2019-04-05T06:43:59.211Z,12.49
2019-04-05T06:45:05.126Z,12.45
2019-04-05T06:46:09.674Z,12.48
2019-04-05T06:47:14.143Z,12.64
2019-04-05T06:48:19.818Z,12.63
2019-04-05T06:49:25.435Z,12.72
2019-04-05T06:50:30.252Z,12.60
2019-04-05T06:51:34.727Z,12.34
2019-04-05T06:52:39.189Z,12.56
2019-04-05T06:53:43.682Z,12.61
2019-04-05T06:54:48.207Z,12.67
2019-04-05T06:55:52.976Z,12.62
2019-04-05T06:56:57.440Z,12.58
2019-04-05T06:58:01.906Z,12.50
2019-04-05T06:59:06.399Z,12.61
2019-04-05T07:00:11.133Z,12.47
2019-04-05T07:01:15.676Z,12.32
2019-04-05T07:02:20.577Z,12.49
2019-04-05T07:03:26.663Z,12.60
2019-04-05T07:04:31.311Z,12.44
2019-04-05T07:05:35.756Z,12.44
2019-04-05T07:06:40.235Z,12.63
2019-04-05T07:07:44.720Z,12.58
2019-04-05T07:08:54.105Z,12.80
2019-04-05T07:09:55.469Z,12.90
2019-04-05T07:11:00.322Z,12.68
2019-04-05T07:12:04.867Z,12.71
2019-04-05T07:13:09.449Z,12.85
2019-04-05T07:14:14.152Z,12.94
2019-04-05T07:15:18.600Z,13.02
2019-04-05T07:16:23.136Z,13.11
2019-04-05T07:17:27.673Z,13.28
2019-04-05T07:18:36.010Z,13.47
2019-04-05T07:19:38.669Z,13.61
2019-04-05T07:20:43.214Z,13.61
2019-04-05T07:21:48.642Z,13.73
2019-04-05T07:22:53.183Z,13.95
2019-04-05T07:23:58.098Z,13.80
2019-04-05T07:25:02.718Z,13.85
2019-04-05T07:26:07.244Z,13.95
2019-04-05T07:27:11.716Z,14.19
2019-04-05T07:28:16.210Z,14.43
2019-04-05T07:29:20.700Z,14.53
2019-04-05T07:30:25.228Z,14.68
2019-04-05T07:31:29.987Z,14.63
2019-04-05T07:32:34.452Z,14.61
2019-04-05T07:33:38.939Z,14.35
2019-04-05T07:34:43.405Z,14.27
2019-04-05T07:35:48.242Z,14.65
2019-04-05T07:36:52.718Z,14.60
2019-04-05T07:37:57.175Z,14.54
2019-04-05T07:39:02.639Z,14.48
2019-04-05T07:40:08.310Z,14.52
2019-04-05T07:41:12.780Z,14.61
2019-04-05T07:42:17.242Z,14.84
2019-04-05T07:43:21.719Z,14.83
2019-04-05T07:44:27.173Z,14.79
2019-04-05T07:45:31.953Z,14.60
2019-04-05T07:46:36.683Z,14.52
2019-04-05T07:47:41.147Z,14.73
2019-04-05T07:48:45.730Z,14.76
2019-04-05T07:49:50.495Z,14.96
2019-04-05T07:50:54.952Z,14.83
2019-04-05T07:51:59.414Z,14.75
2019-04-05T07:53:03.950Z,14.86
2019-04-05T07:54:08.750Z,14.87
2019-04-05T07:55:13.347Z,14.86
2019-04-05T07:56:18.781Z,14.86
2019-04-05T07:57:23.244Z,14.98
2019-04-05T07:58:29.019Z,14.91
2019-04-05T07:59:33.496Z,14.64
2019-04-05T08:00:49.991Z,14.72
2019-04-05T08:01:54.447Z,14.87
2019-04-05T08:02:58.910Z,14.98
2019-04-05T08:04:03.760Z,14.98
2019-04-05T08:05:08.766Z,14.88
2019-04-05T08:06:13.367Z,14.76
2019-04-05T08:07:19.662Z,14.77
2019-04-05T08:08:39.123Z,14.47
2019-04-05T08:09:43.678Z,14.45
2019-04-05T08:10:48.208Z,14.31
2019-04-05T08:11:52.740Z,14.29
2019-04-05T08:12:58.539Z,14.52
2019-04-05T08:14:03.748Z,14.50
2019-04-05T08:15:10.421Z,14.47
2019-04-05T08:16:14.961Z,14.32
2019-04-05T08:17:19.421Z,14.44
2019-04-05T08:18:23.887Z,14.25
2019-04-05T08:19:28.382Z,14.28
2019-04-05T08:20:32.845Z,14.23
2019-04-05T08:21:37.319Z,14.28
2019-04-05T08:22:41.783Z,14.34
2019-04-05T08:23:46.248Z,14.21
2019-04-05T08:24:50.732Z,14.36
2019-04-05T08:25:55.263Z,14.46
2019-04-05T08:26:59.735Z,14.53
2019-04-05T08:28:06.746Z,14.58
2019-04-05T08:29:10.982Z,14.52
2019-04-05T08:30:16.058Z,14.33
2019-04-05T08:31:20.527Z,14.32
2019-04-05T08:32:25.392Z,14.14
2019-04-05T08:33:29.854Z,14.27
2019-04-05T08:34:34.370Z,14.28
2019-04-05T08:35:38.828Z,14.14
2019-04-05T08:36:43.295Z,14.24
2019-04-05T08:37:47.753Z,14.28
2019-04-05T08:38:52.221Z,14.22
2019-04-05T08:39:57.081Z,13.96
2019-04-05T08:41:01.540Z,13.63
2019-04-05T08:42:06.145Z,13.88
2019-04-05T08:43:10.896Z,13.93
2019-04-05T08:44:15.359Z,13.87
2019-04-05T08:45:19.983Z,13.54
2019-04-05T08:46:24.441Z,13.72
2019-04-05T08:47:28.911Z,13.83
2019-04-05T08:48:33.733Z,13.77
2019-04-05T08:49:38.216Z,13.56
2019-04-05T08:50:42.680Z,13.58
2019-04-05T08:51:47.534Z,13.58
2019-04-05T08:52:52.771Z,13.47
2019-04-05T08:53:57.241Z,13.29
2019-04-05T08:55:01.793Z,13.55
2019-04-05T08:56:06.731Z,13.73
2019-04-05T08:57:11.207Z,13.60
2019-04-05T08:58:15.695Z,13.71
2019-04-05T08:59:20.276Z,13.79
2019-04-05T09:00:25.382Z,13.84
2019-04-05T09:01:29.879Z,13.87
2019-04-05T09:02:34.717Z,13.95
2019-04-05T09:03:39.924Z,14.02
2019-04-05T09:04:44.396Z,13.72
2019-04-05T09:05:48.886Z,13.45
2019-04-05T09:06:53.343Z,13.20
2019-04-05T09:07:58.205Z,13.19
2019-04-05T09:09:03.322Z,13.07
2019-04-05T09:10:08.323Z,13.11
2019-04-05T09:11:12.868Z,13.01
2019-04-05T09:12:17.359Z,13.11
2019-04-05T09:13:22.196Z,13.17
2019-04-05T09:14:27.779Z,13.04
2019-04-05T09:15:32.414Z,13.18
2019-04-05T09:16:36.953Z,13.18
2019-04-05T09:17:41.432Z,13.30
2019-04-05T09:18:45.912Z,13.57
2019-04-05T09:19:50.375Z,13.70
2019-04-05T09:20:54.864Z,13.57
2019-04-05T09:21:59.704Z,13.31
2019-04-05T09:23:04.190Z,13.41
2019-04-05T09:24:09.065Z,13.36
2019-04-05T09:25:13.572Z,13.48
2019-04-05T09:26:18.396Z,13.44
2019-04-05T09:27:22.941Z,13.51
2019-04-05T09:28:29.029Z,13.61
2019-04-05T09:29:34.473Z,13.60
2019-04-05T09:30:39.308Z,13.82
2019-04-05T09:31:43.907Z,13.83
2019-04-05T09:32:48.382Z,13.83
2019-04-05T09:33:52.854Z,13.89
2019-04-05T09:34:57.321Z,13.96
2019-04-05T09:36:02.175Z,14.08
2019-04-05T09:37:06.995Z,14.09
2019-04-05T09:38:11.468Z,14.20
2019-04-05T09:39:16.032Z,14.27
2019-04-05T09:40:21.282Z,14.12
2019-04-05T09:41:25.845Z,13.84
2019-04-05T09:42:30.309Z,13.88
2019-04-05T09:43:34.770Z,14.12
2019-04-05T09:44:39.232Z,14.13
2019-04-05T09:45:43.720Z,14.21
2019-04-05T09:46:51.014Z,14.14
2019-04-05T09:47:54.420Z,14.15
2019-04-05T09:48:58.883Z,14.01
2019-04-05T09:50:04.723Z,13.99
2019-04-05T09:51:09.262Z,14.05
2019-04-05T09:52:13.670Z,14.34
2019-04-05T09:53:19.112Z,14.35
2019-04-05T09:54:23.904Z,14.23
2019-04-05T09:55:28.705Z,14.33
2019-04-05T09:56:33.190Z,14.40
2019-04-05T09:57:37.660Z,14.26
2019-04-05T09:58:42.117Z,14.23
2019-04-05T09:59:46.742Z,14.31
2019-04-05T10:00:51.705Z,14.34
2019-04-05T10:01:56.164Z,14.62
2019-04-05T10:03:00.689Z,14.59
2019-04-05T10:04:05.224Z,14.51
2019-04-05T10:05:09.759Z,14.45
2019-04-05T10:06:14.320Z,14.76
2019-04-05T10:07:19.190Z,14.55
2019-04-05T10:08:24.727Z,14.88
2019-04-05T10:09:29.196Z,14.58
2019-04-05T10:10:33.721Z,14.52
2019-04-05T10:11:38.227Z,14.17
2019-04-05T10:12:42.698Z,14.00
2019-04-05T10:13:47.151Z,14.05
2019-04-05T10:14:51.899Z,14.12
2019-04-05T10:15:56.390Z,14.23
2019-04-05T10:17:00.853Z,14.31
2019-04-05T10:18:05.495Z,14.38
2019-04-05T10:19:10.255Z,14.06
2019-04-05T10:20:14.965Z,14.12
2019-04-05T10:21:19.448Z,14.20
2019-04-05T10:22:23.978Z,13.88
2019-04-05T10:23:28.634Z,13.92
2019-04-05T10:24:33.268Z,14.42
2019-04-05T10:25:37.694Z,14.49
2019-04-05T10:26:43.256Z,14.61
2019-04-05T10:27:48.098Z,14.37
2019-04-05T10:28:52.937Z,14.33
2019-04-05T10:29:57.412Z,14.41
2019-04-05T10:31:01.894Z,14.41
2019-04-05T10:32:06.672Z,14.12
2019-04-05T10:33:11.483Z,13.87
2019-04-05T10:34:15.947Z,13.61
2019-04-05T10:35:20.808Z,13.78
2019-04-05T10:36:25.301Z,13.93
2019-04-05T10:37:29.762Z,13.99
2019-04-05T10:38:34.553Z,14.15
2019-04-05T10:39:39.021Z,14.00
2019-04-05T10:40:43.894Z,14.09
2019-04-05T10:41:48.713Z,14.18
2019-04-05T10:42:53.183Z,14.13
2019-04-05T10:43:58.583Z,14.08
2019-04-05T10:45:11.558Z,14.15
2019-04-05T10:46:16.040Z,14.47
2019-04-05T10:47:20.917Z,14.54
2019-04-05T10:48:25.711Z,14.76
2019-04-05T10:49:30.179Z,14.65
2019-04-05T10:50:34.925Z,14.65
2019-04-05T10:51:39.413Z,14.35
2019-04-05T10:52:43.883Z,14.07
2019-04-05T10:53:48.348Z,14.23
2019-04-05T10:54:53.198Z,14.54
2019-04-05T10:55:57.666Z,14.44
2019-04-05T10:57:02.162Z,14.55
2019-04-05T10:58:08.033Z,14.45
2019-04-05T10:59:12.501Z,14.33
2019-04-05T11:00:17.675Z,14.45
2019-04-05T11:01:22.231Z,14.75
2019-04-05T11:02:26.695Z,14.87
2019-04-05T11:03:31.556Z,15.13
2019-04-05T11:04:36.370Z,15.00
2019-04-05T11:05:41.194Z,14.85
2019-04-05T11:06:45.673Z,14.49
2019-04-05T11:07:50.208Z,14.40
2019-04-05T11:08:55.054Z,14.69
2019-04-05T11:09:59.501Z,14.63
2019-04-05T11:11:03.967Z,14.77
2019-04-05T11:12:09.494Z,14.86
2019-04-05T11:13:13.954Z,14.77
2019-04-05T11:14:18.428Z,14.94
2019-04-05T11:15:22.885Z,14.95
2019-04-05T11:16:27.548Z,15.10
2019-04-05T11:17:32.030Z,14.92
2019-04-05T11:18:36.815Z,14.95
2019-04-05T11:19:41.284Z,14.77
2019-04-05T11:20:48.800Z,14.79
2019-04-05T11:21:52.441Z,14.84
2019-04-05T11:22:58.409Z,14.86
2019-04-05T11:24:02.875Z,14.67
2019-04-05T11:25:08.372Z,14.62
2019-04-05T11:26:12.835Z,14.97
2019-04-05T11:27:17.689Z,15.38
2019-04-05T11:28:22.148Z,15.36
2019-04-05T11:29:26.626Z,15.69
2019-04-05T11:30:42.300Z,15.57
2019-04-05T11:31:56.932Z,15.46
2019-04-05T11:32:52.940Z,15.45
2019-04-05T11:33:58.307Z,15.48
2019-04-05T11:35:03.201Z,15.62
2019-04-05T11:36:08.627Z,15.37
2019-04-05T11:37:13.565Z,15.30
2019-04-05T11:38:18.800Z,15.22
2019-04-05T11:39:23.608Z,15.44
2019-04-05T11:40:28.425Z,15.46
2019-04-05T11:41:35.545Z,15.47
2019-04-05T11:42:40.873Z,15.38
2019-04-05T11:43:48.235Z,15.46
2019-04-05T11:44:55.797Z,15.33
2019-04-05T11:46:00.844Z,15.54
2019-04-05T11:47:05.499Z,15.33
2019-04-05T11:48:09.967Z,15.23
2019-04-05T11:49:15.079Z,15.34
2019-04-05T11:50:19.813Z,15.52
2019-04-05T11:51:24.349Z,15.72
2019-04-05T11:52:28.835Z,15.85
2019-04-05T11:53:33.642Z,15.95
2019-04-05T11:54:38.462Z,15.58
2019-04-05T11:55:46.289Z,15.44
2019-04-05T11:56:49.448Z,15.55
2019-04-05T11:57:54.877Z,15.63
2019-04-05T11:58:59.716Z,15.86
2019-04-05T12:00:20.953Z,15.78
2019-04-05T12:01:27.487Z,15.97
2019-04-05T12:02:39.273Z,15.87
2019-04-05T12:03:43.751Z,15.76
2019-04-05T12:04:48.214Z,15.46
2019-04-05T12:05:52.678Z,15.45
2019-04-05T12:06:57.145Z,15.96
2019-04-05T12:08:02.156Z,15.90
2019-04-05T12:09:08.864Z,16.02
2019-04-05T12:10:13.776Z,16.12
2019-04-05T12:11:18.608Z,15.98
2019-04-05T12:12:25.512Z,15.94
2019-04-05T12:13:29.250Z,15.58
2019-04-05T12:14:34.500Z,15.67
2019-04-05T12:15:39.885Z,15.57
2019-04-05T12:16:44.761Z,15.28
2019-04-05T12:17:49.520Z,15.08
2019-04-05T12:18:54.002Z,15.14
2019-04-05T12:20:00.592Z,15.33
2019-04-05T12:21:05.711Z,15.44
2019-04-05T12:22:10.362Z,15.52
2019-04-05T12:23:14.844Z,15.68
2019-04-05T12:24:19.305Z,15.49
2019-04-05T12:25:24.142Z,15.47
2019-04-05T12:26:28.765Z,15.68
2019-04-05T12:27:33.216Z,15.58
2019-04-05T12:28:37.697Z,15.67
2019-04-05T12:29:42.489Z,15.47
2019-04-05T12:30:48.515Z,15.49
2019-04-05T12:31:53.573Z,15.71
2019-04-05T12:32:58.093Z,15.93
2019-04-05T12:34:02.992Z,16.15
2019-04-05T12:35:08.696Z,16.59
2019-04-05T12:36:13.455Z,16.46
2019-04-05T12:37:17.924Z,16.08
2019-04-05T12:38:33.057Z,15.93
2019-04-05T12:39:37.850Z,16.12
2019-04-05T12:40:42.708Z,16.25
2019-04-05T12:41:48.551Z,16.22
2019-04-05T12:42:53.287Z,16.41
2019-04-05T12:43:57.875Z,16.67
2019-04-05T12:45:02.341Z,16.47
2019-04-05T12:46:06.983Z,16.20
2019-04-05T12:47:11.432Z,16.10
2019-04-05T12:48:16.643Z,16.08
2019-04-05T12:49:21.635Z,16.39
2019-04-05T12:50:26.456Z,16.69
2019-04-05T12:51:30.915Z,16.31
2019-04-05T12:52:35.377Z,16.14
2019-04-05T12:53:40.099Z,16.11
2019-04-05T12:54:44.565Z,16.32
2019-04-05T12:55:49.038Z,16.34
2019-04-05T12:56:54.274Z,16.43
2019-04-05T12:57:58.835Z,16.19
2019-04-05T12:59:03.680Z,15.94
2019-04-05T13:00:13.396Z,16.05
2019-04-05T13:01:17.518Z,15.94
2019-04-05T13:02:33.019Z,16.18
2019-04-05T13:03:28.168Z,16.52
2019-04-05T13:04:32.630Z,16.46
2019-04-05T13:05:37.096Z,16.33
2019-04-05T13:06:42.336Z,16.35
2019-04-05T13:07:46.902Z,16.60
2019-04-05T13:08:53.650Z,16.53
2019-04-05T13:09:57.776Z,16.51
2019-04-05T13:11:02.386Z,16.78
2019-04-05T13:12:06.842Z,16.80
2019-04-05T13:13:11.676Z,17.01
2019-04-05T13:14:16.183Z,17.04
2019-04-05T13:15:21.019Z,16.81
2019-04-05T13:16:25.473Z,16.86
2019-04-05T13:17:31.301Z,17.01
2019-04-05T13:18:36.591Z,17.11
2019-04-05T13:19:41.043Z,17.09
2019-04-05T13:20:45.508Z,17.11
2019-04-05T13:21:51.040Z,17.33
2019-04-05T13:22:55.795Z,17.29
2019-04-05T13:24:00.276Z,17.25
2019-04-05T13:25:10.687Z,17.11
2019-04-05T13:26:13.398Z,17.00
2019-04-05T13:27:17.866Z,17.06
2019-04-05T13:28:22.322Z,17.12
2019-04-05T13:29:26.806Z,17.19
2019-04-05T13:30:31.786Z,17.09
2019-04-05T13:31:36.248Z,16.86
2019-04-05T13:32:41.077Z,16.55
2019-04-05T13:33:45.564Z,16.64
2019-04-05T13:34:50.032Z,16.68
2019-04-05T13:35:54.602Z,16.84
2019-04-05T13:37:01.407Z,17.23
2019-04-05T13:38:06.008Z,17.38
2019-04-05T13:39:10.478Z,17.05
2019-04-05T13:40:15.428Z,17.08
2019-04-05T13:41:19.896Z,17.25
2019-04-05T13:42:24.669Z,17.36
2019-04-05T13:43:29.838Z,17.37
2019-04-05T13:44:36.042Z,17.55
2019-04-05T13:45:41.893Z,17.54
2019-04-05T13:46:46.355Z,17.26
2019-04-05T13:47:50.820Z,17.43
2019-04-05T13:48:55.286Z,17.35
2019-04-05T13:49:59.792Z,17.23
2019-04-05T13:51:07.088Z,16.91
2019-04-05T13:52:12.096Z,16.93
2019-04-05T13:53:16.585Z,17.10
2019-04-05T13:54:21.470Z,17.17
2019-04-05T13:55:25.926Z,17.07
2019-04-05T13:56:30.703Z,17.12
2019-04-05T13:57:35.172Z,17.11
2019-04-05T13:58:39.637Z,17.43
2019-04-05T13:59:44.809Z,17.61
2019-04-05T14:00:49.835Z,17.41
2019-04-05T14:02:05.528Z,17.36
2019-04-05T14:03:01.054Z,17.44
2019-04-05T14:04:05.519Z,17.63
2019-04-05T14:05:10.443Z,17.43
2019-04-05T14:06:14.906Z,17.31